• Join FlightAware (Why Join?)
  • Login
  • US Flag 
03:37PM EDT


 

Airport Tracker/Info


-or-


 

Live Flight TrackerFlight Track Log ✈ CES2227 ✈ 07-Jul-2013 ✈ ZSPD / PVG - ZUJZ / JZH

Flight Track Log - Related Links

Times and Time Zones

All times are in EDT time to prevent confusion due to time zone crossing. See the CES2227 flight status page for this flight to view local times or setup timezone preferences in your user account.

Time Position Orientation Groundspeed Altitude Reporting Facility
EDT Latitude Longitude Course Direction KTS MPH feet Rate Location/Type
03:44AM 31.1000 121.8090 160° South 171 197 2,400  Level FlightAware
03:45AM 31.0760 121.8180 162° South 171 197 2,900 1,260 Climbing FlightAware
03:45AM 31.0540 121.8260 163° South 220 253 3,600 2,400 Climbing FlightAware
03:45AM 31.0250 121.8370 162° South 235 270 4,900 2,880 Climbing FlightAware
03:46AM 31.0140 121.8390 171° South 226 260 5,300 2,160 Climbing FlightAware
03:46AM 30.9950 121.8280 206° Southwest 224 258 6,000 1,560 Climbing FlightAware
03:46AM 30.9890 121.8180 235° Southwest 226 260 6,100 720 Climbing FlightAware
03:47AM 30.9780 121.7800 251° West 255 293 6,500 1,020 Climbing FlightAware
03:47AM 30.9750 121.7670 255° West 259 298 6,800 2,520 Climbing FlightAware
03:47AM 30.9670 121.7330 255° West 266 306 8,000 2,640 Climbing FlightAware
03:48AM 30.9740 121.7050 286° West 278 320 8,800 2,520 Climbing FlightAware
03:48AM 30.9880 121.6730 297° West 278 320 9,900 2,400 Climbing FlightAware
03:49AM 31.0150 121.6070 296° West 300 345 11,600 2,520 Climbing FlightAware
03:49AM 31.0390 121.5490 296° West 290 334 13,500 2,400 Climbing FlightAware
03:50AM 31.0590 121.4980 295° West 306 352 14,600 1,800 Climbing FlightAware
03:51AM 31.0860 121.4310 295° West 320 368 15,900 1,920 Climbing FlightAware
03:51AM 31.1140 121.3650 296° West 326 375 17,400 2,100 Climbing FlightAware
03:52AM 31.1350 121.3340 308° West 332 382 18,200 960 Climbing FlightAware
03:53AM 31.1890 121.2960 329° Northwest 339 390 18,500 1,080 Climbing FlightAware
03:53AM 31.2510 121.2540 330° Northwest 390 449 19,700 900 Climbing FlightAware
03:54AM 31.3160 121.2100 330° Northwest 394 453 19,700  Level FlightAware
03:55AM 31.3890 121.1590 329° Northwest 398 458 19,700 840 Level FlightAware
03:55AM 31.4550 121.1150 330° Northwest 402 463 20,900 1,980 Climbing FlightAware
03:56AM 31.5220 121.0790 335° Northwest 403 464 22,400 2,280 Climbing FlightAware
03:57AM 31.5920 121.0420 336° Northwest 388 447 24,200 2,040 Climbing FlightAware
03:57AM 31.6640 121.0030 335° Northwest 388 447 25,300 1,020 Climbing FlightAware
03:58AM 31.7470 120.9580 335° Northwest 390 449 25,900 360 Climbing FlightAware
03:59AM 31.7980 120.9300 335° Northwest 390 449 25,900  Level FlightAware
03:59AM 31.8460 120.9040 335° Northwest 390 449 25,900  Level FlightAware
04:01AM 31.9640 120.8390 335° Northwest 390 449 25,900  Level FlightAware
04:01AM 32.0140 120.8120 335° Northwest 390 449 25,900 3,000 Level FlightAware
04:04AM 32.0423 120.5703 278° West  Level Estimated
04:04AM 32.1830 120.5620 278° West 386 444 34,500  Level FlightAware
04:05AM 32.1970 120.4090 276° West 387 445 35,100 600 Climbing FlightAware
04:06AM 32.2060 120.3220 277° West 402 463 35,700 480 Climbing FlightAware
04:06AM 32.2120 120.2550 276° West 402 463 35,700  Level FlightAware
04:07AM 32.2180 120.1850 276° West 402 463 35,700 360 Level FlightAware
04:07AM 32.2130 120.0970 266° West 427 491 36,100 420 Climbing FlightAware
04:08AM 32.1830 120.0190 246° West 432 497 36,100  Level FlightAware
04:08AM 32.1440 119.9370 241° Southwest 431 496 36,100  Level FlightAware
04:09AM 32.1070 119.8560 242° Southwest 428 493 36,100  Level FlightAware
04:10AM 32.0760 119.7760 245° Southwest 427 491 36,100  Level FlightAware
04:10AM 32.0610 119.6760 260° West 427 491 36,100  Level FlightAware
04:11AM 32.0520 119.5730 264° West 429 494 36,100  Level FlightAware
04:12AM 32.0410 119.4680 263° West 431 496 36,100  Level FlightAware
04:13AM 32.0330 119.3750 264° West 431 496 36,100  Level FlightAware
04:13AM 32.0250 119.2810 264° West 429 494 36,100 60 Level FlightAware
04:14AM 32.0370 119.1950 279° West 428 493 36,200  Climbing FlightAware
04:15AM 32.1030 119.0480 298° West 427 491 36,100 -60 Descending FlightAware
04:16AM 32.1620 118.9560 307° West 432 497 36,100  Level FlightAware
04:17AM 32.2110 118.8770 306° West 429 494 36,100  Level FlightAware
04:17AM 32.2610 118.8030 309° West 437 503 36,100  Level FlightAware
04:18AM 32.3180 118.7160 308° West 433 498 36,100  Level FlightAware
04:19AM 32.3640 118.6370 305° West 433 498 36,100  Level FlightAware
04:19AM 32.4060 118.5540 301° West 440 506 36,100  Level FlightAware
04:20AM 32.4530 118.4550 299° West 438 504 36,100  Level FlightAware
04:21AM 32.4690 118.3650 282° West 440 506 36,100  Level FlightAware
04:21AM 32.4830 118.2860 282° West 439 505 36,100  Level FlightAware
04:22AM 32.4990 118.1900 281° West 439 505 36,100  Level FlightAware
04:23AM 32.5180 118.0780 281° West 440 506 36,100  Level FlightAware
04:24AM 32.5370 117.9600 281° West 440 506 36,100  Level FlightAware
04:24AM 32.5490 117.8870 281° West 440 506 36,100  Level FlightAware
04:25AM 32.5650 117.7910 281° West 440 506 36,100  Level FlightAware
04:26AM 32.5770 117.7180 281° West 440 506 36,100  Level FlightAware
04:27AM 32.5960 117.5990 281° West 440 506 36,100  Level FlightAware
04:27AM 32.6090 117.5230 281° West 440 506 36,100  Level FlightAware
04:28AM 32.6250 117.4260 281° West 440 506 36,100  Level FlightAware
04:29AM 32.6360 117.3570 281° West 440 506 36,100  Level FlightAware
04:30AM 32.6520 117.2560 281° West 440 506 36,100  Level FlightAware
04:30AM 32.6640 117.1880 282° West 440 506 36,100  Level FlightAware
04:31AM 32.6800 117.0890 281° West 440 506 36,100  Level FlightAware
04:32AM 32.6920 117.0120 281° West 440 506 36,100  Level FlightAware
04:32AM 32.7080 116.9150 281° West 440 506 36,100  Level FlightAware
04:35AM 32.7235 116.6698 274° West  Level Estimated
04:36AM 32.7309 116.5501 274° West  Level Estimated
04:37AM 32.7381 116.4305 274° West  Level Estimated
04:38AM 32.7453 116.3108 274° West  Level Estimated
04:39AM 32.7523 116.1911 274° West  Level Estimated
04:40AM 32.7592 116.0714 274° West  Level Estimated
04:41AM 32.7660 115.9517 274° West  Level Estimated
04:42AM 32.7727 115.8319 274° West  Level Estimated
04:43AM 32.7793 115.7121 274° West  Level Estimated
04:44AM 32.7858 115.5923 274° West  Level Estimated
04:45AM 32.7921 115.4725 274° West  Level Estimated
04:46AM 32.7984 115.3527 274° West  Level Estimated
04:47AM 32.8045 115.2328 274° West  Level Estimated
04:48AM 32.8105 115.1130 273° West  Level Estimated
04:49AM 32.8164 114.9931 273° West  Level Estimated
04:50AM 32.8222 114.8732 273° West  Level Estimated
04:51AM 32.8279 114.7533 273° West  Level Estimated
04:52AM 32.8334 114.6334 273° West  Level Estimated
04:53AM 32.8389 114.5135 273° West  Level Estimated
04:54AM 32.8442 114.3935 273° West  Level Estimated
04:55AM 32.8494 114.2735 273° West  Level Estimated
04:56AM 32.8545 114.1535 273° West  Level Estimated
04:57AM 32.8595 114.0336 273° West  Level Estimated
04:58AM 32.8643 113.9136 273° West  Level Estimated
04:59AM 32.8691 113.7935 273° West  Level Estimated
05:00AM 32.8737 113.6735 273° West  Level Estimated
05:01AM 32.8783 113.5535 273° West  Level Estimated
05:02AM 32.8827 113.4334 273° West  Level Estimated
05:03AM 32.8870 113.3133 272° West  Level Estimated
05:04AM 32.8911 113.1933 272° West  Level Estimated
05:05AM 32.8952 113.0732 272° West  Level Estimated
05:06AM 32.8992 112.9531 272° West  Level Estimated
05:07AM 32.9030 112.8329 272° West  Level Estimated
05:08AM 32.9067 112.7128 272° West  Level Estimated
05:09AM 32.9103 112.5927 272° West  Level Estimated
05:10AM 32.9138 112.4726 272° West  Level Estimated
05:11AM 32.9172 112.3524 272° West  Level Estimated
05:12AM 32.9204 112.2322 272° West  Level Estimated
05:13AM 32.9236 112.1121 272° West  Level Estimated
05:14AM 32.9266 111.9919 272° West  Level Estimated
05:15AM 32.9296 111.8717 272° West  Level Estimated
05:16AM 32.9324 111.7515 272° West  Level Estimated
05:17AM 32.9350 111.6313 272° West  Level Estimated
05:18AM 32.9376 111.5111 271° West  Level Estimated
05:19AM 32.9401 111.3909 271° West  Level Estimated
05:20AM 32.9424 111.2707 271° West  Level Estimated
05:21AM 32.9446 111.1505 271° West  Level Estimated
05:22AM 32.9467 111.0302 271° West  Level Estimated
05:23AM 32.9487 110.9100 271° West  Level Estimated
05:24AM 32.9506 110.7897 271° West  Level Estimated
05:25AM 32.9524 110.6695 271° West  Level Estimated
05:26AM 32.9540 110.5492 271° West  Level Estimated
05:27AM 32.9556 110.4290 271° West  Level Estimated
05:28AM 32.9570 110.3087 271° West  Level Estimated
05:29AM 32.9583 110.1885 271° West  Level Estimated
05:30AM 32.9595 110.0682 271° West  Level Estimated
05:31AM 32.9605 109.9479 271° West  Level Estimated
05:32AM 32.9615 109.8276 271° West  Level Estimated
05:33AM 32.9623 109.7074 271° West  Level Estimated
05:34AM 32.9631 109.5871 270° West  Level Estimated
05:35AM 32.9637 109.4668 270° West  Level Estimated
05:36AM 32.9642 109.3465 270° West  Level Estimated
05:37AM 32.9646 109.2262 270° West  Level Estimated
05:38AM 32.9648 109.1059 270° West  Level Estimated
05:39AM 32.9650 108.9856 270° West  Level Estimated
05:40AM 32.9650 108.8654 270° West  Level Estimated
05:41AM 32.9649 108.7451 270° West  Level Estimated
05:42AM 32.9647 108.6248 270° West  Level Estimated
05:43AM 32.9644 108.5045 270° West  Level Estimated
05:44AM 32.9640 108.3842 270° West  Level Estimated
05:45AM 32.9635 108.2639 270° West  Level Estimated
05:46AM 32.9628 108.1437 270° West  Level Estimated
05:47AM 32.9620 108.0234 270° West  Level Estimated
05:48AM 32.9611 107.9031 270° West  Level Estimated
05:49AM 32.9601 107.7828 269° West  Level Estimated
05:50AM 32.9590 107.6626 269° West  Level Estimated
05:51AM 32.9578 107.5423 269° West  Level Estimated
05:52AM 32.9564 107.4220 269° West  Level Estimated
05:53AM 32.9550 107.3018 269° West  Level Estimated
05:54AM 32.9534 107.1815 269° West  Level Estimated
05:55AM 32.9517 107.0613 269° West  Level Estimated
05:56AM 32.9499 106.9410 269° West  Level Estimated
05:57AM 32.9480 106.8208 269° West  Level Estimated
05:58AM 32.9459 106.7005 269° West  Level Estimated
05:59AM 32.9438 106.5803 269° West  Level Estimated
06:00AM 32.9415 106.4601 269° West  Level Estimated
06:01AM 32.9391 106.3399 269° West  Level Estimated
06:02AM 32.9366 106.2196 269° West  Level Estimated
06:03AM 32.9340 106.0994 269° West  Level Estimated
06:04AM 32.9313 105.9792 268° West  Level Estimated
06:05AM 32.9285 105.8590 268° West  Level Estimated
06:06AM 32.9255 105.7389 268° West  Level Estimated
06:07AM 32.9224 105.6187 268° West  Level Estimated
06:08AM 32.9192 105.4985 268° West  Level Estimated
06:09AM 32.9159 105.3784 268° West  Level Estimated
06:10AM 32.9125 105.2582 268° West  Level Estimated
06:11AM 32.9090 105.1381 268° West  Level Estimated
06:12AM 32.9053 105.0179 268° West  Level Estimated
06:13AM 32.9015 104.8962 268° West  Level Estimated
06:14AM 32.8976 104.7745 268° West  Level Estimated
06:15AM 32.8935 104.6528 268° West  Level Estimated
06:16AM 32.8894 104.5312 268° West  Level Estimated
06:17AM 32.8851 104.4095 268° West  Level Estimated
06:18AM 32.8807 104.2878 268° West  Level Estimated
06:19AM 32.8761 104.1662 267° West  Level Estimated
06:20AM 32.8715 104.0446 267° West  Level Estimated
06:21AM 32.8667 103.9230 267° West  Level Estimated
06:22AM 32.8619 103.8014 267° West  Level Estimated
06:23AM 32.8570 103.6830 267° West  Level Estimated
06:24AM 32.8570 103.6830 North  Level Estimated
06:25AM 32.8570 103.6830 North  Level Estimated
06:26AM 32.8570 103.6830 North  Level Estimated
06:27AM 32.8570 103.6830 North  Level Estimated
06:28AM 32.8570 103.6830 North  Level Estimated
06:29AM 32.8570 103.6830 North  Level Estimated
06:30AM 32.8570 103.6830 North  Level Estimated